< < Back
Terminal Aerodrome Forecast


Current Version              Previous Versions:   1  2  3  4  5  6  7  8  9  

Terminal Aerodrome Forecast

590
FTUS44 KBMX 021700
TAFMGM
TAF
KMGM 021733Z 0218/0318 VRB04KT 2SM BR OVC003
     FM031500 14004KT 5SM BR OVC008=

Latest METAR

421
SAUS80 KWBC 031500 CCA
MTRMGM
METAR KMGM 031453Z 13003KT 4SM BR BKN002 OVC027 17/16 A3019 RMK AO2
SLP222 T01720161 51007


USA.gov is the U.S. government's official web portal to all federal, state and local government web resources and services.